sensor_id;sensor_type;location;lat;lon;timestamp;pressure;altitude;pressure_sealevel;temperature;humidity
42519;BME280;28147;47.520;18.920;2023-04-27T00:00:04;98582.66;;;8.71;48.16
42519;BME280;28147;47.520;18.920;2023-04-27T00:02:38;98571.88;;;9.10;46.75
42519;BME280;28147;47.520;18.920;2023-04-27T00:05:04;98569.06;;;9.05;46.95
42519;BME280;28147;47.520;18.920;2023-04-27T00:07:30;98570.13;;;9.22;46.55
42519;BME280;28147;47.520;18.920;2023-04-27T00:09:56;98572.03;;;8.90;47.26
42519;BME280;28147;47.520;18.920;2023-04-27T00:12:22;98569.56;;;8.95;46.99
42519;BME280;28147;47.520;18.920;2023-04-27T00:14:47;98574.50;;;8.91;47.39
42519;BME280;28147;47.520;18.920;2023-04-27T00:17:13;98571.94;;;9.03;47.58
42519;BME280;28147;47.520;18.920;2023-04-27T00:19:38;98568.84;;;9.06;47.47
42519;BME280;28147;47.520;18.920;2023-04-27T00:22:06;98581.47;;;8.86;48.19
42519;BME280;28147;47.520;18.920;2023-04-27T00:24:31;98581.19;;;8.94;47.71
42519;BME280;28147;47.520;18.920;2023-04-27T00:26:57;98575.53;;;8.90;47.84
42519;BME280;28147;47.520;18.920;2023-04-27T00:29:22;98571.63;;;8.93;47.40
42519;BME280;28147;47.520;18.920;2023-04-27T00:31:48;98564.66;;;9.17;47.28
42519;BME280;28147;47.520;18.920;2023-04-27T00:34:13;98565.06;;;8.95;48.05
42519;BME280;28147;47.520;18.920;2023-04-27T00:36:38;98563.31;;;9.08;47.61
42519;BME280;28147;47.520;18.920;2023-04-27T00:41:38;98574.75;;;9.26;45.36
42519;BME280;28147;47.520;18.920;2023-04-27T00:44:04;98580.38;;;9.37;44.51
42519;BME280;28147;47.520;18.920;2023-04-27T00:47:18;98571.19;;;8.96;46.42
42519;BME280;28147;47.520;18.920;2023-04-27T00:49:44;98570.38;;;8.95;46.65
42519;BME280;28147;47.520;18.920;2023-04-27T00:52:09;98576.53;;;8.89;47.50
42519;BME280;28147;47.520;18.920;2023-04-27T00:54:35;98559.97;;;8.94;47.22
42519;BME280;28147;47.520;18.920;2023-04-27T00:57:02;98567.19;;;8.87;47.17
42519;BME280;28147;47.520;18.920;2023-04-27T00:59:28;98572.31;;;8.82;47.37
42519;BME280;28147;47.520;18.920;2023-04-27T01:01:53;98569.19;;;8.91;46.11
42519;BME280;28147;47.520;18.920;2023-04-27T01:04:19;98559.97;;;8.94;45.91
42519;BME280;28147;47.520;18.920;2023-04-27T01:06:45;98569.13;;;9.16;45.40
42519;BME280;28147;47.520;18.920;2023-04-27T01:09:11;98562.94;;;9.04;45.26
42519;BME280;28147;47.520;18.920;2023-04-27T01:11:36;98563.00;;;8.97;45.42
42519;BME280;28147;47.520;18.920;2023-04-27T01:14:03;98563.72;;;8.86;45.72
42519;BME280;28147;47.520;18.920;2023-04-27T01:16:31;98576.94;;;8.93;45.36
42519;BME280;28147;47.520;18.920;2023-04-27T01:18:57;98573.84;;;8.96;44.84
42519;BME280;28147;47.520;18.920;2023-04-27T01:23:24;98571.63;;;8.93;44.50
42519;BME280;28147;47.520;18.920;2023-04-27T01:25:50;98567.19;;;8.87;45.21
42519;BME280;28147;47.520;18.920;2023-04-27T01:28:15;98571.25;;;8.89;45.67
42519;BME280;28147;47.520;18.920;2023-04-27T01:30:40;98563.94;;;8.85;45.37
42519;BME280;28147;47.520;18.920;2023-04-27T01:33:06;98575.91;;;8.69;46.31
42519;BME280;28147;47.520;18.920;2023-04-27T01:35:31;98580.84;;;8.65;46.93
42519;BME280;28147;47.520;18.920;2023-04-27T01:37:57;98583.97;;;8.56;47.17
42519;BME280;28147;47.520;18.920;2023-04-27T01:40:22;98589.47;;;8.61;46.58
42519;BME280;28147;47.520;18.920;2023-04-27T01:42:47;98581.97;;;8.51;47.24
42519;BME280;28147;47.520;18.920;2023-04-27T01:45:13;98579.00;;;8.66;46.49
42519;BME280;28147;47.520;18.920;2023-04-27T01:47:38;98587.28;;;8.51;47.23
42519;BME280;28147;47.520;18.920;2023-04-27T01:50:04;98592.88;;;8.29;47.29
42519;BME280;28147;47.520;18.920;2023-04-27T01:52:30;98587.22;;;8.58;46.59
42519;BME280;28147;47.520;18.920;2023-04-27T01:54:56;98587.81;;;8.60;46.36
42519;BME280;28147;47.520;18.920;2023-04-27T01:57:21;98591.13;;;8.55;46.63
42519;BME280;28147;47.520;18.920;2023-04-27T01:59:46;98589.56;;;8.72;46.30
42519;BME280;28147;47.520;18.920;2023-04-27T02:02:12;98589.38;;;8.67;45.74
42519;BME280;28147;47.520;18.920;2023-04-27T02:04:37;98579.28;;;8.58;45.93
42519;BME280;28147;47.520;18.920;2023-04-27T02:07:02;98594.66;;;8.49;46.33
42519;BME280;28147;47.520;18.920;2023-04-27T02:09:28;98585.31;;;8.71;44.91
42519;BME280;28147;47.520;18.920;2023-04-27T02:11:53;98594.66;;;8.74;46.11
42519;BME280;28147;47.520;18.920;2023-04-27T02:14:19;98600.81;;;8.43;46.35
42519;BME280;28147;47.520;18.920;2023-04-27T02:16:44;98597.69;;;8.52;46.48
42519;BME280;28147;47.520;18.920;2023-04-27T02:19:10;98598.00;;;8.63;46.99
42519;BME280;28147;47.520;18.920;2023-04-27T02:21:35;98603.34;;;8.24;47.76
42519;BME280;28147;47.520;18.920;2023-04-27T02:24:01;98602.22;;;8.45;47.47
42519;BME280;28147;47.520;18.920;2023-04-27T02:26:26;98607.94;;;8.42;47.53
42519;BME280;28147;47.520;18.920;2023-04-27T02:28:54;98613.25;;;8.36;47.55
42519;BME280;28147;47.520;18.920;2023-04-27T02:31:20;98614.16;;;8.23;48.30
42519;BME280;28147;47.520;18.920;2023-04-27T02:33:46;98605.47;;;8.09;48.58
42519;BME280;28147;47.520;18.920;2023-04-27T02:36:11;98613.56;;;8.21;48.29
42519;BME280;28147;47.520;18.920;2023-04-27T02:38:37;98610.19;;;8.07;48.56
42519;BME280;28147;47.520;18.920;2023-04-27T02:41:02;98616.84;;;8.16;48.51
42519;BME280;28147;47.520;18.920;2023-04-27T02:43:28;98621.75;;;7.68;49.23
42519;BME280;28147;47.520;18.920;2023-04-27T02:45:53;98623.28;;;8.34;46.90
42519;BME280;28147;47.520;18.920;2023-04-27T02:48:18;98622.91;;;8.30;46.09
42519;BME280;28147;47.520;18.920;2023-04-27T02:50:44;98636.63;;;8.14;47.74
42519;BME280;28147;47.520;18.920;2023-04-27T02:53:10;98635.81;;;8.13;46.17
42519;BME280;28147;47.520;18.920;2023-04-27T02:55:37;98631.69;;;8.24;47.23
42519;BME280;28147;47.520;18.920;2023-04-27T02:58:03;98634.88;;;8.01;47.37
42519;BME280;28147;47.520;18.920;2023-04-27T03:00:29;98629.34;;;8.02;47.56
42519;BME280;28147;47.520;18.920;2023-04-27T03:02:54;98635.25;;;8.04;47.17
42519;BME280;28147;47.520;18.920;2023-04-27T03:05:20;98636.50;;;7.95;47.52
42519;BME280;28147;47.520;18.920;2023-04-27T03:07:45;98640.28;;;7.68;48.26
42519;BME280;28147;47.520;18.920;2023-04-27T03:10:11;98647.03;;;7.64;48.97
42519;BME280;28147;47.520;18.920;2023-04-27T03:12:36;98639.25;;;7.69;48.84
42519;BME280;28147;47.520;18.920;2023-04-27T03:15:02;98638.91;;;7.52;49.13
42519;BME280;28147;47.520;18.920;2023-04-27T03:17:28;98638.91;;;7.59;49.05
42519;BME280;28147;47.520;18.920;2023-04-27T03:19:53;98644.19;;;7.65;48.99
42519;BME280;28147;47.520;18.920;2023-04-27T03:22:19;98638.25;;;7.70;48.95
42519;BME280;28147;47.520;18.920;2023-04-27T03:24:44;98646.63;;;7.53;49.77
42519;BME280;28147;47.520;18.920;2023-04-27T03:27:10;98640.56;;;7.46;50.10
42519;BME280;28147;47.520;18.920;2023-04-27T03:31:46;98653.22;;;7.24;50.72
42519;BME280;28147;47.520;18.920;2023-04-27T03:34:12;98648.72;;;7.38;49.54
42519;BME280;28147;47.520;18.920;2023-04-27T03:36:37;98648.13;;;7.29;50.18
42519;BME280;28147;47.520;18.920;2023-04-27T03:39:03;98653.00;;;7.32;49.50
42519;BME280;28147;47.520;18.920;2023-04-27T03:41:28;98651.97;;;7.40;49.26
42519;BME280;28147;47.520;18.920;2023-04-27T03:43:53;98658.13;;;7.27;49.20
42519;BME280;28147;47.520;18.920;2023-04-27T03:46:19;98660.94;;;7.26;49.60
42519;BME280;28147;47.520;18.920;2023-04-27T03:48:44;98659.94;;;7.27;49.58
42519;BME280;28147;47.520;18.920;2023-04-27T03:51:12;98667.91;;;7.14;49.87
42519;BME280;28147;47.520;18.920;2023-04-27T03:53:37;98667.69;;;7.35;49.56
42519;BME280;28147;47.520;18.920;2023-04-27T03:58:37;98674.38;;;7.38;49.71
42519;BME280;28147;47.520;18.920;2023-04-27T04:01:02;98664.41;;;7.33;50.01
42519;BME280;28147;47.520;18.920;2023-04-27T04:03:28;98670.91;;;7.30;50.33
42519;BME280;28147;47.520;18.920;2023-04-27T04:05:53;98665.44;;;7.39;49.97
42519;BME280;28147;47.520;18.920;2023-04-27T04:08:19;98676.22;;;7.44;49.67
42519;BME280;28147;47.520;18.920;2023-04-27T04:10:44;98681.06;;;7.60;49.74
42519;BME280;28147;47.520;18.920;2023-04-27T04:14:06;98687.75;;;7.76;49.82
42519;BME280;28147;47.520;18.920;2023-04-27T04:16:32;98680.44;;;7.65;49.83
42519;BME280;28147;47.520;18.920;2023-04-27T04:18:58;98685.34;;;7.68;50.34
42519;BME280;28147;47.520;18.920;2023-04-27T04:21:23;98694.66;;;7.84;49.57
42519;BME280;28147;47.520;18.920;2023-04-27T04:23:48;98693.81;;;7.96;49.73
42519;BME280;28147;47.520;18.920;2023-04-27T04:26:14;98699.47;;;8.07;49.62
42519;BME280;28147;47.520;18.920;2023-04-27T04:28:40;98694.50;;;8.30;49.05
42519;BME280;28147;47.520;18.920;2023-04-27T04:31:06;98701.97;;;8.53;47.73
42519;BME280;28147;47.520;18.920;2023-04-27T04:33:33;98697.66;;;8.52;48.59
42519;BME280;28147;47.520;18.920;2023-04-27T04:36:02;98700.47;;;8.95;48.07
42519;BME280;28147;47.520;18.920;2023-04-27T04:38:28;98700.41;;;9.52;46.91
42519;BME280;28147;47.520;18.920;2023-04-27T04:40:53;98703.25;;;9.75;46.31
42519;BME280;28147;47.520;18.920;2023-04-27T04:43:19;98703.47;;;9.92;45.63
42519;BME280;28147;47.520;18.920;2023-04-27T04:45:44;98703.16;;;10.19;45.37
42519;BME280;28147;47.520;18.920;2023-04-27T04:48:13;98711.34;;;10.54;44.99
42519;BME280;28147;47.520;18.920;2023-04-27T04:50:38;98705.81;;;10.37;44.83
42519;BME280;28147;47.520;18.920;2023-04-27T04:53:04;98704.50;;;10.77;43.97
42519;BME280;28147;47.520;18.920;2023-04-27T04:55:29;98702.34;;;10.37;43.84
42519;BME280;28147;47.520;18.920;2023-04-27T04:57:55;98702.41;;;10.79;42.47
42519;BME280;28147;47.520;18.920;2023-04-27T05:00:20;98707.91;;;9.98;42.33
42519;BME280;28147;47.520;18.920;2023-04-27T05:02:46;98709.38;;;9.94;42.65
42519;BME280;28147;47.520;18.920;2023-04-27T05:05:11;98718.00;;;10.45;41.40
42519;BME280;28147;47.520;18.920;2023-04-27T05:07:37;98712.41;;;10.95;41.40
42519;BME280;28147;47.520;18.920;2023-04-27T05:10:03;98716.47;;;11.09;41.19
42519;BME280;28147;47.520;18.920;2023-04-27T05:12:28;98719.19;;;10.79;42.18
42519;BME280;28147;47.520;18.920;2023-04-27T05:14:54;98718.19;;;10.92;40.34
42519;BME280;28147;47.520;18.920;2023-04-27T05:17:19;98720.00;;;11.22;39.72
42519;BME280;28147;47.520;18.920;2023-04-27T05:19:44;98729.19;;;11.49;40.11
42519;BME280;28147;47.520;18.920;2023-04-27T05:22:10;98722.13;;;12.02;39.34
42519;BME280;28147;47.520;18.920;2023-04-27T05:24:35;98729.00;;;12.66;39.07
42519;BME280;28147;47.520;18.920;2023-04-27T05:27:01;98724.06;;;12.75;39.30
42519;BME280;28147;47.520;18.920;2023-04-27T05:29:26;98735.19;;;13.63;38.26
42519;BME280;28147;47.520;18.920;2023-04-27T05:31:52;98734.25;;;13.91;37.14
42519;BME280;28147;47.520;18.920;2023-04-27T05:34:18;98726.19;;;13.69;36.58
42519;BME280;28147;47.520;18.920;2023-04-27T05:36:44;98736.31;;;13.84;33.04
42519;BME280;28147;47.520;18.920;2023-04-27T05:39:11;98733.25;;;13.75;32.25
42519;BME280;28147;47.520;18.920;2023-04-27T05:41:37;98739.72;;;13.62;33.12
42519;BME280;28147;47.520;18.920;2023-04-27T05:44:02;98729.78;;;13.97;32.00
42519;BME280;28147;47.520;18.920;2023-04-27T05:46:28;98734.44;;;13.84;32.04
42519;BME280;28147;47.520;18.920;2023-04-27T05:48:53;98740.03;;;13.66;31.84
42519;BME280;28147;47.520;18.920;2023-04-27T05:51:18;98753.59;;;13.43;32.55
42519;BME280;28147;47.520;18.920;2023-04-27T05:53:44;98750.69;;;13.61;32.40
42519;BME280;28147;47.520;18.920;2023-04-27T05:56:09;98758.94;;;13.59;32.79
42519;BME280;28147;47.520;18.920;2023-04-27T05:58:36;98754.66;;;13.42;32.29
42519;BME280;28147;47.520;18.920;2023-04-27T06:01:01;98755.59;;;13.52;33.31
42519;BME280;28147;47.520;18.920;2023-04-27T06:03:28;98756.34;;;13.65;32.90
42519;BME280;28147;47.520;18.920;2023-04-27T06:05:58;98757.31;;;13.58;31.59
42519;BME280;28147;47.520;18.920;2023-04-27T06:08:24;98760.88;;;13.81;33.19
42519;BME280;28147;47.520;18.920;2023-04-27T06:10:50;98756.66;;;13.51;30.41
42519;BME280;28147;47.520;18.920;2023-04-27T06:13:16;98759.81;;;13.48;30.56
42519;BME280;28147;47.520;18.920;2023-04-27T06:15:41;98760.16;;;13.52;29.37
42519;BME280;28147;47.520;18.920;2023-04-27T06:18:07;98763.09;;;13.50;31.09
42519;BME280;28147;47.520;18.920;2023-04-27T06:20:33;98763.84;;;14.23;45.16
42519;BME280;28147;47.520;18.920;2023-04-27T06:22:59;98761.19;;;14.45;32.43
42519;BME280;28147;47.520;18.920;2023-04-27T06:25:25;98765.06;;;13.94;29.62
42519;BME280;28147;47.520;18.920;2023-04-27T06:27:53;98760.72;;;14.70;29.40
42519;BME280;28147;47.520;18.920;2023-04-27T06:30:18;98757.44;;;14.90;27.94
42519;BME280;28147;47.520;18.920;2023-04-27T06:32:44;98744.88;;;14.96;28.54
42519;BME280;28147;47.520;18.920;2023-04-27T06:35:10;98757.75;;;15.90;34.55
42519;BME280;28147;47.520;18.920;2023-04-27T06:37:35;98759.56;;;16.22;27.20
42519;BME280;28147;47.520;18.920;2023-04-27T06:40:01;98750.34;;;16.13;28.34
42519;BME280;28147;47.520;18.920;2023-04-27T06:42:27;98762.88;;;15.97;26.10
42519;BME280;28147;47.520;18.920;2023-04-27T06:44:53;98766.59;;;15.91;27.23
42519;BME280;28147;47.520;18.920;2023-04-27T06:47:20;98766.41;;;15.33;25.40
42519;BME280;28147;47.520;18.920;2023-04-27T06:49:46;98773.75;;;15.43;26.47
42519;BME280;28147;47.520;18.920;2023-04-27T06:52:12;98778.00;;;16.13;26.79
42519;BME280;28147;47.520;18.920;2023-04-27T06:54:37;98771.22;;;16.53;27.62
42519;BME280;28147;47.520;18.920;2023-04-27T06:57:03;98771.09;;;16.85;26.40
42519;BME280;28147;47.520;18.920;2023-04-27T06:59:28;98778.22;;;16.59;26.38
42519;BME280;28147;47.520;18.920;2023-04-27T07:01:53;98777.06;;;16.40;26.05
42519;BME280;28147;47.520;18.920;2023-04-27T07:04:19;98774.00;;;16.11;26.11
42519;BME280;28147;47.520;18.920;2023-04-27T07:06:44;98779.06;;;16.65;26.90
42519;BME280;28147;47.520;18.920;2023-04-27T07:09:10;98770.53;;;16.78;25.14
42519;BME280;28147;47.520;18.920;2023-04-27T07:11:35;98778.22;;;16.49;24.34
42519;BME280;28147;47.520;18.920;2023-04-27T07:14:00;98772.94;;;16.17;24.42
42519;BME280;28147;47.520;18.920;2023-04-27T07:16:26;98778.41;;;15.85;25.44
42519;BME280;28147;47.520;18.920;2023-04-27T07:18:51;98773.78;;;15.48;25.04
42519;BME280;28147;47.520;18.920;2023-04-27T07:21:17;98778.06;;;15.17;26.16
42519;BME280;28147;47.520;18.920;2023-04-27T07:23:42;98783.50;;;15.86;25.50
42519;BME280;28147;47.520;18.920;2023-04-27T07:26:08;98783.59;;;16.49;24.85
42519;BME280;28147;47.520;18.920;2023-04-27T07:28:34;98777.09;;;15.92;24.63
42519;BME280;28147;47.520;18.920;2023-04-27T07:31:02;98778.50;;;16.58;25.43
42519;BME280;28147;47.520;18.920;2023-04-27T07:33:28;98774.38;;;17.69;34.54
42519;BME280;28147;47.520;18.920;2023-04-27T07:35:54;98787.34;;;17.92;24.42
42519;BME280;28147;47.520;18.920;2023-04-27T07:38:21;98791.13;;;17.86;25.43
42519;BME280;28147;47.520;18.920;2023-04-27T07:40:47;98788.38;;;17.10;25.16
42519;BME280;28147;47.520;18.920;2023-04-27T07:43:14;98780.75;;;16.23;26.30
42519;BME280;28147;47.520;18.920;2023-04-27T07:45:40;98778.06;;;16.18;26.89
42519;BME280;28147;47.520;18.920;2023-04-27T07:48:05;98781.03;;;16.22;26.15
42519;BME280;28147;47.520;18.920;2023-04-27T07:50:31;98783.13;;;16.67;26.48
42519;BME280;28147;47.520;18.920;2023-04-27T07:52:57;98784.66;;;16.00;26.39
42519;BME280;28147;47.520;18.920;2023-04-27T07:55:23;98791.50;;;16.18;26.86
42519;BME280;28147;47.520;18.920;2023-04-27T07:57:51;98785.75;;;15.99;27.88
42519;BME280;28147;47.520;18.920;2023-04-27T08:00:16;98793.28;;;16.02;27.33
42519;BME280;28147;47.520;18.920;2023-04-27T08:02:42;98795.16;;;15.38;28.02
42519;BME280;28147;47.520;18.920;2023-04-27T08:05:08;98793.53;;;15.37;27.80
42519;BME280;28147;47.520;18.920;2023-04-27T08:07:33;98793.25;;;15.06;28.59
42519;BME280;28147;47.520;18.920;2023-04-27T08:09:59;98792.31;;;14.68;29.20
42519;BME280;28147;47.520;18.920;2023-04-27T08:12:24;98789.56;;;14.85;28.45
42519;BME280;28147;47.520;18.920;2023-04-27T08:14:50;98788.47;;;15.08;28.74
42519;BME280;28147;47.520;18.920;2023-04-27T08:17:16;98797.19;;;14.98;28.84
42519;BME280;28147;47.520;18.920;2023-04-27T08:19:42;98797.81;;;15.32;28.56
42519;BME280;28147;47.520;18.920;2023-04-27T08:22:08;98793.41;;;16.81;27.79
42519;BME280;28147;47.520;18.920;2023-04-27T08:24:33;98780.81;;;17.12;24.95
42519;BME280;28147;47.520;18.920;2023-04-27T08:26:58;98791.91;;;17.41;24.61
42519;BME280;28147;47.520;18.920;2023-04-27T08:29:24;98796.47;;;17.40;23.80
42519;BME280;28147;47.520;18.920;2023-04-27T08:31:49;98790.00;;;17.31;23.85
42519;BME280;28147;47.520;18.920;2023-04-27T08:34:15;98787.53;;;18.96;24.14
42519;BME280;28147;47.520;18.920;2023-04-27T08:36:40;98790.84;;;17.83;24.00
42519;BME280;28147;47.520;18.920;2023-04-27T08:39:06;98791.00;;;16.26;24.66
42519;BME280;28147;47.520;18.920;2023-04-27T08:41:32;98789.72;;;16.39;27.01
42519;BME280;28147;47.520;18.920;2023-04-27T08:43:58;98788.47;;;16.62;27.79
42519;BME280;28147;47.520;18.920;2023-04-27T08:48:01;98786.56;;;16.05;28.95
42519;BME280;28147;47.520;18.920;2023-04-27T08:50:26;98783.75;;;15.85;29.00
42519;BME280;28147;47.520;18.920;2023-04-27T08:52:52;98792.00;;;16.10;28.99
42519;BME280;28147;47.520;18.920;2023-04-27T08:55:17;98792.38;;;16.39;28.42
42519;BME280;28147;47.520;18.920;2023-04-27T08:57:53;98783.03;;;16.47;27.50
42519;BME280;28147;47.520;18.920;2023-04-27T09:00:19;98781.69;;;15.97;28.13
42519;BME280;28147;47.520;18.920;2023-04-27T09:02:45;98796.22;;;16.48;28.01
42519;BME280;28147;47.520;18.920;2023-04-27T09:05:19;98778.91;;;16.92;26.72
42519;BME280;28147;47.520;18.920;2023-04-27T09:08:03;98782.72;;;17.06;25.81
42519;BME280;28147;47.520;18.920;2023-04-27T09:10:45;98776.75;;;16.89;26.02
42519;BME280;28147;47.520;18.920;2023-04-27T09:13:11;98781.59;;;15.81;25.00
42519;BME280;28147;47.520;18.920;2023-04-27T09:15:41;98778.56;;;16.10;25.47
42519;BME280;28147;47.520;18.920;2023-04-27T09:18:13;98784.38;;;17.84;26.10
42519;BME280;28147;47.520;18.920;2023-04-27T09:20:49;98775.75;;;17.56;24.93
42519;BME280;28147;47.520;18.920;2023-04-27T09:25:54;98763.63;;;17.48;26.36
42519;BME280;28147;47.520;18.920;2023-04-27T09:28:21;98763.34;;;17.14;26.35
42519;BME280;28147;47.520;18.920;2023-04-27T09:30:58;98773.84;;;17.26;27.22
42519;BME280;28147;47.520;18.920;2023-04-27T09:33:25;98767.06;;;16.83;26.28
42519;BME280;28147;47.520;18.920;2023-04-27T09:35:51;98762.94;;;16.70;25.49
42519;BME280;28147;47.520;18.920;2023-04-27T09:38:20;98767.16;;;16.45;25.15
42519;BME280;28147;47.520;18.920;2023-04-27T09:40:47;98762.72;;;16.76;24.61
42519;BME280;28147;47.520;18.920;2023-04-27T09:43:13;98764.44;;;17.18;24.70
42519;BME280;28147;47.520;18.920;2023-04-27T09:45:39;98753.94;;;17.42;23.38
42519;BME280;28147;47.520;18.920;2023-04-27T09:48:05;98756.91;;;17.82;23.64
42519;BME280;28147;47.520;18.920;2023-04-27T09:50:42;98760.13;;;17.33;24.62
42519;BME280;28147;47.520;18.920;2023-04-27T09:53:10;98758.25;;;17.54;26.00
42519;BME280;28147;47.520;18.920;2023-04-27T09:55:58;98762.81;;;17.17;26.44
42519;BME280;28147;47.520;18.920;2023-04-27T10:07:14;98752.31;;;17.97;26.47
42519;BME280;28147;47.520;18.920;2023-04-27T10:09:42;98748.81;;;17.56;24.01
42519;BME280;28147;47.520;18.920;2023-04-27T10:14:56;98744.38;;;16.58;26.11
42519;BME280;28147;47.520;18.920;2023-04-27T10:17:32;98733.19;;;17.68;26.06
42519;BME280;28147;47.520;18.920;2023-04-27T10:20:05;98738.25;;;16.78;26.23
42519;BME280;28147;47.520;18.920;2023-04-27T10:25:28;98737.06;;;15.91;28.36
42519;BME280;28147;47.520;18.920;2023-04-27T10:27:57;98742.13;;;16.29;27.73
42519;BME280;28147;47.520;18.920;2023-04-27T10:30:24;98745.56;;;16.88;27.73
42519;BME280;28147;47.520;18.920;2023-04-27T10:32:51;98740.47;;;17.68;26.17
42519;BME280;28147;47.520;18.920;2023-04-27T10:35:18;98750.38;;;18.13;25.60
42519;BME280;28147;47.520;18.920;2023-04-27T10:37:44;98740.00;;;16.42;25.07
42519;BME280;28147;47.520;18.920;2023-04-27T10:40:11;98739.22;;;16.51;25.20
42519;BME280;28147;47.520;18.920;2023-04-27T10:42:43;98736.03;;;15.97;26.44
42519;BME280;28147;47.520;18.920;2023-04-27T10:45:11;98736.19;;;16.22;27.14
42519;BME280;28147;47.520;18.920;2023-04-27T10:47:41;98748.06;;;16.37;27.56
42519;BME280;28147;47.520;18.920;2023-04-27T10:50:08;98746.66;;;17.84;26.29
42519;BME280;28147;47.520;18.920;2023-04-27T10:52:42;98742.66;;;17.40;25.83
42519;BME280;28147;47.520;18.920;2023-04-27T10:55:19;98747.22;;;17.65;24.81
42519;BME280;28147;47.520;18.920;2023-04-27T10:57:53;98740.13;;;18.20;25.18
42519;BME280;28147;47.520;18.920;2023-04-27T11:00:44;98752.34;;;17.21;26.14
42519;BME280;28147;47.520;18.920;2023-04-27T11:03:11;98742.38;;;17.21;26.23
42519;BME280;28147;47.520;18.920;2023-04-27T11:05:38;98750.97;;;17.13;26.90
42519;BME280;28147;47.520;18.920;2023-04-27T11:08:09;98741.59;;;17.77;25.92
42519;BME280;28147;47.520;18.920;2023-04-27T11:10:38;98729.47;;;18.55;25.78
42519;BME280;28147;47.520;18.920;2023-04-27T11:13:11;98730.50;;;19.48;24.64
42519;BME280;28147;47.520;18.920;2023-04-27T11:15:44;98739.75;;;18.97;25.10
42519;BME280;28147;47.520;18.920;2023-04-27T11:18:10;98741.50;;;18.13;25.97
42519;BME280;28147;47.520;18.920;2023-04-27T11:20:36;98742.34;;;17.88;26.02
42519;BME280;28147;47.520;18.920;2023-04-27T11:23:01;98741.03;;;17.19;26.99
42519;BME280;28147;47.520;18.920;2023-04-27T11:25:27;98732.81;;;18.31;26.57
42519;BME280;28147;47.520;18.920;2023-04-27T11:27:53;98732.66;;;18.62;25.22
42519;BME280;28147;47.520;18.920;2023-04-27T11:30:20;98730.91;;;18.91;24.24
42519;BME280;28147;47.520;18.920;2023-04-27T11:32:46;98730.00;;;19.06;23.05
42519;BME280;28147;47.520;18.920;2023-04-27T11:35:12;98733.38;;;18.23;23.79
42519;BME280;28147;47.520;18.920;2023-04-27T11:37:37;98738.06;;;17.66;24.75
42519;BME280;28147;47.520;18.920;2023-04-27T11:40:03;98725.00;;;18.30;24.85
42519;BME280;28147;47.520;18.920;2023-04-27T11:42:29;98735.44;;;19.35;24.54
42519;BME280;28147;47.520;18.920;2023-04-27T11:47:22;98729.59;;;18.84;25.05
42519;BME280;28147;47.520;18.920;2023-04-27T11:49:48;98729.91;;;18.77;24.96
42519;BME280;28147;47.520;18.920;2023-04-27T11:52:14;98731.50;;;18.13;24.44
42519;BME280;28147;47.520;18.920;2023-04-27T11:54:51;98729.09;;;19.16;24.60
42519;BME280;28147;47.520;18.920;2023-04-27T11:57:23;98731.34;;;17.43;25.32
42519;BME280;28147;47.520;18.920;2023-04-27T11:59:50;98738.06;;;17.10;26.50
42519;BME280;28147;47.520;18.920;2023-04-27T12:02:16;98736.38;;;18.06;25.95
42519;BME280;28147;47.520;18.920;2023-04-27T12:04:41;98731.06;;;18.61;25.57
42519;BME280;28147;47.520;18.920;2023-04-27T12:07:07;98724.28;;;18.68;25.37
42519;BME280;28147;47.520;18.920;2023-04-27T12:09:33;98724.44;;;18.33;24.91
42519;BME280;28147;47.520;18.920;2023-04-27T12:11:58;98727.00;;;17.93;24.07
42519;BME280;28147;47.520;18.920;2023-04-27T12:14:24;98717.41;;;18.42;24.81
42519;BME280;28147;47.520;18.920;2023-04-27T12:16:50;98723.06;;;18.90;23.35
42519;BME280;28147;47.520;18.920;2023-04-27T12:19:15;98727.03;;;18.58;24.33
42519;BME280;28147;47.520;18.920;2023-04-27T12:21:41;98724.06;;;17.85;24.97
42519;BME280;28147;47.520;18.920;2023-04-27T12:24:07;98732.69;;;17.20;25.89
42519;BME280;28147;47.520;18.920;2023-04-27T12:26:32;98726.72;;;17.95;25.13
42519;BME280;28147;47.520;18.920;2023-04-27T12:28:58;98724.25;;;18.74;24.83
42519;BME280;28147;47.520;18.920;2023-04-27T12:31:23;98728.06;;;18.73;23.83
42519;BME280;28147;47.520;18.920;2023-04-27T12:33:50;98720.41;;;18.85;24.09
42519;BME280;28147;47.520;18.920;2023-04-27T12:36:16;98715.06;;;18.80;24.48
42519;BME280;28147;47.520;18.920;2023-04-27T12:38:42;98721.78;;;18.82;24.70
42519;BME280;28147;47.520;18.920;2023-04-27T12:41:07;98720.59;;;18.44;24.81
42519;BME280;28147;47.520;18.920;2023-04-27T12:43:33;98719.34;;;18.21;24.25
42519;BME280;28147;47.520;18.920;2023-04-27T12:46:02;98720.41;;;18.30;24.01
42519;BME280;28147;47.520;18.920;2023-04-27T12:48:27;98722.97;;;17.86;24.95
42519;BME280;28147;47.520;18.920;2023-04-27T12:50:53;98729.31;;;18.31;24.81
42519;BME280;28147;47.520;18.920;2023-04-27T12:53:18;98722.25;;;18.45;25.21
42519;BME280;28147;47.520;18.920;2023-04-27T12:55:43;98726.50;;;18.51;24.75
42519;BME280;28147;47.520;18.920;2023-04-27T12:58:09;98725.41;;;18.57;24.53
42519;BME280;28147;47.520;18.920;2023-04-27T13:00:35;98715.91;;;18.05;25.29
42519;BME280;28147;47.520;18.920;2023-04-27T13:03:00;98724.59;;;17.92;25.90
42519;BME280;28147;47.520;18.920;2023-04-27T13:05:26;98720.38;;;18.35;26.11
42519;BME280;28147;47.520;18.920;2023-04-27T13:07:51;98718.19;;;18.42;25.36
42519;BME280;28147;47.520;18.920;2023-04-27T13:10:17;98721.69;;;18.43;25.27
42519;BME280;28147;47.520;18.920;2023-04-27T13:12:42;98719.72;;;18.59;25.36
42519;BME280;28147;47.520;18.920;2023-04-27T13:15:08;98717.22;;;18.78;24.96
42519;BME280;28147;47.520;18.920;2023-04-27T13:17:34;98717.75;;;18.20;24.55
42519;BME280;28147;47.520;18.920;2023-04-27T13:19:59;98713.19;;;18.10;24.66